createdAt,value
2022-07-27T00:01:37.828Z,0.80
2022-07-27T00:11:59.357Z,0.60
2022-07-27T00:32:42.583Z,0.90
2022-07-27T00:43:04.214Z,0.95
2022-07-27T00:53:25.773Z,1.20
2022-07-27T01:14:12.222Z,1.00
2022-07-27T01:24:34.288Z,0.95
2022-07-27T01:34:55.834Z,1.05
2022-07-27T01:55:39.364Z,1.00
2022-07-27T02:06:01.261Z,1.70
2022-07-27T02:16:22.850Z,1.15
2022-07-27T02:26:46.285Z,1.30
2022-07-27T02:37:11.345Z,1.10
2022-07-27T02:47:32.891Z,1.30
2022-07-27T03:08:16.133Z,1.50
2022-07-27T03:18:38.339Z,1.15
2022-07-27T03:29:00.207Z,1.48
2022-07-27T03:39:21.709Z,1.75
2022-07-27T03:49:43.281Z,1.42
2022-07-27T04:10:31.556Z,1.83
2022-07-27T04:20:53.433Z,1.77
2022-07-27T04:31:15.079Z,1.90
2022-07-27T04:51:58.088Z,1.77
2022-07-27T05:12:41.151Z,2.00
2022-07-27T05:23:02.762Z,1.70
2022-07-27T05:43:45.665Z,1.30
2022-07-27T05:54:08.080Z,2.00
2022-07-27T06:04:29.681Z,1.48
2022-07-27T06:46:00.892Z,1.02
2022-07-27T07:06:44.613Z,1.08
2022-07-27T07:17:06.220Z,1.10
2022-07-27T07:27:28.370Z,1.10
2022-07-27T07:37:50.531Z,1.10
2022-07-27T07:48:12.444Z,1.00
2022-07-27T07:58:33.999Z,0.85
2022-07-27T08:08:55.538Z,1.00
2022-07-27T08:19:17.069Z,1.05
2022-07-27T08:29:39.453Z,0.90
2022-07-27T08:50:43.102Z,1.08
2022-07-27T09:01:04.773Z,1.63
2022-07-27T09:11:26.391Z,0.98
2022-07-27T11:18:00.179Z,0.80
2022-07-27T11:28:35.183Z,0.60
2022-07-27T11:38:56.727Z,0.40
2022-07-27T11:49:28.727Z,0.70
2022-07-27T11:59:51.090Z,0.77
2022-07-27T12:10:13.426Z,0.50
2022-07-27T12:20:37.325Z,0.90
2022-07-27T12:30:58.970Z,0.82
2022-07-27T17:21:32.666Z,1.00
2022-07-27T17:31:54.181Z,0.80
2022-07-27T17:42:15.755Z,0.70
2022-07-27T18:44:38.414Z,1.20
2022-07-27T18:55:00.905Z,1.00
2022-07-27T19:05:40.696Z,1.30
2022-07-27T19:16:03.472Z,0.90
2022-07-27T19:26:25.189Z,1.10
2022-07-27T19:36:46.743Z,0.82
2022-07-27T19:47:08.514Z,1.25
2022-07-27T19:57:30.101Z,1.30
2022-07-27T20:07:51.683Z,1.02
2022-07-27T20:18:13.301Z,0.80
2022-07-27T20:28:34.965Z,0.75
2022-07-27T20:38:58.997Z,0.93
2022-07-27T20:49:20.728Z,0.70
2022-07-27T20:59:42.267Z,0.77
2022-07-27T21:10:05.332Z,0.80
2022-07-27T21:20:27.554Z,0.95
2022-07-27T21:30:49.097Z,0.90
2022-07-27T21:41:10.629Z,1.17
2022-07-27T21:51:32.229Z,1.17
2022-07-27T22:01:53.782Z,0.88
2022-07-27T22:12:15.334Z,1.05
2022-07-27T22:22:37.004Z,0.82
2022-07-27T22:32:59.834Z,0.82
2022-07-27T22:43:21.392Z,1.10
2022-07-27T22:53:44.585Z,0.90
2022-07-27T23:14:29.288Z,0.80
2022-07-27T23:24:51.167Z,0.90
2022-07-27T23:35:12.896Z,0.93
2022-07-27T23:55:56.730Z,0.68
